createdAt,value
2018-04-23T00:01:47.457Z,132.29
2018-04-23T00:07:38.075Z,109.5
2018-04-23T00:13:28.794Z,70.92
2018-04-23T00:19:19.489Z,77.24
2018-04-23T00:25:10.133Z,93.64
2018-04-23T00:31:00.799Z,60.96
2018-04-23T00:36:51.486Z,33.22
2018-04-23T00:42:42.239Z,27.26
2018-04-23T00:48:32.861Z,23.42
2018-04-23T00:54:23.518Z,21.12
2018-04-23T01:00:14.233Z,27.96
2018-04-23T01:06:04.903Z,27.92
2018-04-23T01:11:55.597Z,28.48
2018-04-23T01:17:46.267Z,22.89
2018-04-23T01:23:36.876Z,22.41
2018-04-23T01:29:27.594Z,22.09
2018-04-23T01:35:18.277Z,21.58
2018-04-23T01:41:08.902Z,24.95
2018-04-23T01:46:59.639Z,22.36
2018-04-23T01:52:50.268Z,24.42
2018-04-23T01:58:40.924Z,26.41
2018-04-23T02:04:31.653Z,23.24
2018-04-23T02:10:22.279Z,29.89
2018-04-23T02:16:12.933Z,22.1
2018-04-23T02:22:03.601Z,19.92
2018-04-23T02:27:54.360Z,23.22
2018-04-23T02:33:44.985Z,32.09
2018-04-23T02:39:35.670Z,28.3
2018-04-23T02:45:26.301Z,36.16
2018-04-23T02:51:16.985Z,32.89
2018-04-23T02:57:07.652Z,33
2018-04-23T03:02:58.310Z,45.21
2018-04-23T03:08:48.907Z,30.46
2018-04-23T03:14:39.619Z,29.31
2018-04-23T03:20:30.262Z,25.47
2018-04-23T03:26:20.962Z,23.95
2018-04-23T03:32:11.632Z,30.32
2018-04-23T03:38:02.237Z,30.35
2018-04-23T03:43:52.907Z,32.78
2018-04-23T03:49:43.584Z,27.4
2018-04-23T03:55:34.229Z,27.64
2018-04-23T04:01:24.942Z,32.23
2018-04-23T04:07:15.574Z,27.53
2018-04-23T04:13:06.261Z,27.65
2018-04-23T04:18:56.853Z,29.45
2018-04-23T04:24:47.580Z,28.3
2018-04-23T04:30:38.211Z,29.42
2018-04-23T04:36:28.855Z,28.54
2018-04-23T04:42:19.550Z,30.25
2018-04-23T04:48:10.205Z,30.99
2018-04-23T04:54:00.890Z,28.61
2018-04-23T04:59:51.516Z,30.04
2018-04-23T05:05:42.211Z,30.44
2018-04-23T05:11:32.927Z,33.16
2018-04-23T05:17:23.546Z,28.87
2018-04-23T05:23:14.216Z,26.09
2018-04-23T05:29:04.856Z,33.11
2018-04-23T05:34:55.622Z,37.92
2018-04-23T05:40:46.212Z,30.59
2018-04-23T05:46:36.904Z,29.09
2018-04-23T05:52:27.619Z,24.26
2018-04-23T05:58:18.225Z,20.33
2018-04-23T06:04:08.928Z,22.08
2018-04-23T06:09:59.642Z,16.83
2018-04-23T06:15:50.246Z,18.47
2018-04-23T06:21:40.927Z,23.07
2018-04-23T06:27:31.655Z,17.37
2018-04-23T06:33:22.251Z,18.44
2018-04-23T06:39:12.946Z,23.59
2018-04-23T06:45:03.664Z,21.96
2018-04-23T06:50:54.335Z,23.06
2018-04-23T06:56:44.972Z,20.12
2018-04-23T07:02:35.673Z,21.21
2018-04-23T07:08:26.363Z,21.84
2018-04-23T07:14:17.044Z,23.19
2018-04-23T07:20:07.738Z,22.74
2018-04-23T07:25:58.446Z,28.32
2018-04-23T07:31:49.092Z,28.02
2018-04-23T07:37:39.907Z,32.24
2018-04-23T07:43:30.475Z,34.73
2018-04-23T07:49:21.193Z,42.26
2018-04-23T07:55:11.912Z,44.28
2018-04-23T08:01:02.589Z,36.21
2018-04-23T08:06:53.302Z,43.05
2018-04-23T08:12:43.960Z,44.75
2018-04-23T08:18:34.700Z,39.72
2018-04-23T08:24:25.315Z,41.97
2018-04-23T08:30:16.105Z,47.5
2018-04-23T08:36:06.717Z,42.66
2018-04-23T08:41:57.409Z,39.41
2018-04-23T08:47:48.134Z,34.77
2018-04-23T08:53:38.861Z,32.38
2018-04-23T08:59:29.502Z,29.63
2018-04-23T09:05:20.209Z,29.65
2018-04-23T09:11:10.907Z,26.07
2018-04-23T09:17:01.627Z,24.51
2018-04-23T09:22:52.316Z,24.26
2018-04-23T09:28:43.039Z,25.58
2018-04-23T09:34:33.752Z,24.19
2018-04-23T09:40:24.409Z,33.54
2018-04-23T09:46:15.135Z,31.64
2018-04-23T09:52:05.880Z,32.72
2018-04-23T09:57:56.532Z,37.48
2018-04-23T10:03:47.315Z,39.11
2018-04-23T10:09:37.959Z,32.08
2018-04-23T10:15:28.697Z,38.72
2018-04-23T10:21:19.390Z,32.3
2018-04-23T10:27:10.102Z,28.58
2018-04-23T10:33:00.843Z,26.83
2018-04-23T10:38:51.568Z,21.17
2018-04-23T10:44:42.284Z,24.89
2018-04-23T10:50:33.040Z,21.16
2018-04-23T10:56:23.759Z,28.96
2018-04-23T11:02:14.524Z,17.23
2018-04-23T11:08:05.169Z,20.26
2018-04-23T11:13:56.005Z,22.23
2018-04-23T11:19:46.740Z,13.74
2018-04-23T11:25:37.418Z,19.41
2018-04-23T11:31:28.104Z,17.85
2018-04-23T11:37:18.866Z,15.34
2018-04-23T11:43:09.574Z,13.98
2018-04-23T11:49:00.333Z,21.1
2018-04-23T11:54:51.072Z,18.4
2018-04-23T12:00:41.834Z,11.85
2018-04-23T12:06:32.582Z,13.23
2018-04-23T12:12:23.367Z,14.15
2018-04-23T12:18:14.175Z,11.87
2018-04-23T12:24:04.874Z,17.75
2018-04-23T12:29:55.692Z,10.48
2018-04-23T12:35:46.500Z,14.36
2018-04-23T12:41:37.301Z,13.52
2018-04-23T12:47:28.066Z,14.1
2018-04-23T12:53:18.916Z,15.65
2018-04-23T12:59:09.609Z,12.96
2018-04-23T13:05:00.374Z,14.58
2018-04-23T13:10:51.143Z,9.61
2018-04-23T13:16:41.921Z,14.45
2018-04-23T13:22:32.687Z,13.5
2018-04-23T13:28:23.476Z,12.44
2018-04-23T13:34:14.241Z,10.44
2018-04-23T13:40:05.108Z,9.97
2018-04-23T13:45:55.922Z,8.64
2018-04-23T13:51:46.677Z,13.56
2018-04-23T13:57:37.519Z,10.82
2018-04-23T14:03:28.333Z,13.43
2018-04-23T14:09:19.227Z,8.44
2018-04-23T14:15:09.964Z,16.05
2018-04-23T14:21:00.788Z,14.57
2018-04-23T14:26:51.599Z,9.89
2018-04-23T14:32:42.413Z,12.34
2018-04-23T14:38:33.243Z,11.63
2018-04-23T14:44:24.037Z,9.59
2018-04-23T14:50:14.786Z,8.21
2018-04-23T14:56:05.554Z,14.04
2018-04-23T15:01:56.338Z,8.24
2018-04-23T15:07:47.138Z,11.47
2018-04-23T15:13:37.894Z,16.81
2018-04-23T15:19:28.659Z,13.35
2018-04-23T15:25:19.434Z,8.25
2018-04-23T15:31:10.204Z,8.31
2018-04-23T15:37:00.951Z,13.46
2018-04-23T15:42:51.727Z,20.11
2018-04-23T15:48:42.515Z,13.21
2018-04-23T15:54:33.218Z,12.17
2018-04-23T16:00:23.992Z,15.81
2018-04-23T16:06:14.712Z,8.64
2018-04-23T16:12:05.457Z,11.67
2018-04-23T16:17:56.221Z,11.97
2018-04-23T16:23:46.978Z,10.6
2018-04-23T16:29:37.701Z,13.29
2018-04-23T16:35:28.480Z,12.44
2018-04-23T16:41:19.189Z,17.53
2018-04-23T16:47:09.947Z,13.05
2018-04-23T16:53:00.682Z,17.7
2018-04-23T16:58:51.411Z,14.79
2018-04-23T17:04:42.144Z,13.56
2018-04-23T17:10:32.904Z,10.34
2018-04-23T17:16:23.638Z,10.68
2018-04-23T17:22:14.353Z,14.19
2018-04-23T17:28:05.137Z,13.85
2018-04-23T17:33:55.813Z,17.29
2018-04-23T17:39:46.551Z,16.92
2018-04-23T17:45:37.238Z,12.25
2018-04-23T17:51:27.967Z,20.9
2018-04-23T17:57:18.683Z,14.63
2018-04-23T18:03:09.420Z,15.94
2018-04-23T18:09:00.172Z,19.85
2018-04-23T18:14:50.817Z,11.44
2018-04-23T18:20:41.524Z,17.83
2018-04-23T18:26:32.262Z,18.3
2018-04-23T18:32:22.953Z,19.66
2018-04-23T18:38:13.663Z,15.19
2018-04-23T18:44:04.389Z,12.19
2018-04-23T18:49:55.087Z,17.46
2018-04-23T18:55:45.799Z,22.01
2018-04-23T19:01:36.492Z,12.95
2018-04-23T19:07:27.238Z,11.9
2018-04-23T19:13:17.920Z,19.8
2018-04-23T19:19:08.625Z,17.65
2018-04-23T19:24:59.329Z,17.32
2018-04-23T19:30:49.985Z,18.03
2018-04-23T19:36:40.726Z,18.41
2018-04-23T19:42:31.391Z,19.9
2018-04-23T19:48:22.080Z,18.73
2018-04-23T19:54:12.772Z,16.8
2018-04-23T20:00:03.444Z,21.14
2018-04-23T20:05:54.168Z,19.85
2018-04-23T20:11:44.816Z,19.37
2018-04-23T20:17:35.542Z,20.17
2018-04-23T20:23:26.234Z,24.47
2018-04-23T20:29:16.935Z,20.5
2018-04-23T20:35:07.569Z,19.54
2018-04-23T20:40:58.264Z,18.28
2018-04-23T20:46:48.963Z,24.85
2018-04-23T20:52:39.682Z,24.48
2018-04-23T20:58:30.324Z,31.85
2018-04-23T21:04:21.035Z,25.52
2018-04-23T21:10:11.714Z,26.82
2018-04-23T21:16:02.421Z,18.08
2018-04-23T21:21:53.060Z,23.07
2018-04-23T21:27:43.747Z,25.39
2018-04-23T21:33:34.436Z,25.7
2018-04-23T21:33:34.446Z,25.7
2018-04-23T21:39:25.125Z,19.27
2018-04-23T21:45:15.819Z,15.81
2018-04-23T21:51:06.562Z,20.39
2018-04-23T21:56:57.197Z,19.92
2018-04-23T22:02:47.840Z,19.69
2018-04-23T22:08:38.541Z,18.2
2018-04-23T22:14:29.213Z,20.85
2018-04-23T22:20:19.890Z,19.76
2018-04-23T22:26:10.525Z,19.39
2018-04-23T22:32:01.225Z,15.57
2018-04-23T22:37:51.945Z,20.79
2018-04-23T22:43:42.620Z,19.21
2018-04-23T22:49:33.291Z,19.82
2018-04-23T22:55:23.934Z,17.4
2018-04-23T23:01:14.635Z,20.8
2018-04-23T23:07:05.264Z,22.13
2018-04-23T23:12:55.970Z,25.27
2018-04-23T23:18:46.610Z,19.49
2018-04-23T23:24:37.282Z,27.85
2018-04-23T23:30:27.951Z,26.31
2018-04-23T23:36:18.676Z,26.54
2018-04-23T23:42:09.303Z,23.89
2018-04-23T23:47:59.968Z,18.61
2018-04-23T23:53:50.617Z,20.36
2018-04-23T23:59:41.346Z,16.51
